LFBT 210400Z AUTO 32002KT 2300 1100 R20/2000D R02/P2000 BR BKN048 02/01 Q1030 BECMG OVC002

ElémentsDécodage
LFBT Station météo située sur l'aérodrome de TARBES Lourdes-Pyrénées
210400Z émis le 21 du mois à 04h00 UTC
AUTO Bulletin édité par un automate
32002KT vent du 320°, 02 noeuds
2300 visibilité horizontale de 2300 mètres
1100 visibilité horizontale de 1100 mètres
R20/2000D portée visuelle de piste
piste 20, 2000 mètres, en baisse
R02/P2000 portée visuelle de piste
piste 02, plus de 2000 mètres
BR brume
BKN048 nuages morcelés (5/8 à 7/8) à 4800 pieds
02/01 température 02°C, point de rosée 01°C
 soit une humidité relative de 93%
Q1030 la pression au niveau de la mer (QNH) est de 1030 hPa
BECMG fluctuation du temps prévue
OVC002 couverture nuageuse totale (8/8) à 200 pieds